Suakin — ZCIL — position and weather

sailwx.info

Track history (hours):
 
Tides and Currents Weather Stations Pressure Air Temp Water Temp Dewpoint Dewpoint Depression Visibility Wind Speed Wind Dir Waves Ship Positions

Suakin

Last reported at 2016-Mar-05 08:18 UTC. Time now 2016-May-04 07:55 UTC.
Position N 18°31' W 064°56'.
Warning: this ship's position is 59 days out of date.

Length 37 m; draft 2.4 m.

Type: Pleasure craft. MMSI: 319897000.

Date/timePositionNaut miles runAvg speedWind from/ knotsBaromVisibWave heightAir tempDewpointWater temp
2016-Mar-05 08:18N 18°31' W 064°56'811.0
2016-Mar-05 07:33N 18°27' W 064°49'3 2.7
2016-Mar-05 06:27N 18°26' W 064°46'0 0.0
2016-Mar-05 05:12N 18°26' W 064°46'0 0.0
2016-Mar-05 04:27N 18°26' W 064°46'0 0.0
2016-Mar-05 03:33N 18°26' W 064°46'0 0.0
2016-Mar-05 02:33N 18°26' W 064°46'0 0.0
2016-Mar-05 01:33N 18°26' W 064°46'0 0.0
2016-Mar-05 00:33N 18°26' W 064°46'0 0.0
2016-Mar-04 23:33N 18°26' W 064°46'0 0.0
2016-Mar-04 22:33N 18°26' W 064°46'0 0.0
2016-Mar-04 21:33N 18°26' W 064°46'0 0.0
2016-Mar-04 20:33N 18°26' W 064°46'0 0.0
2016-Mar-04 19:33N 18°26' W 064°46'0 0.0
2016-Mar-04 18:33N 18°26' W 064°46'0 0.0
2016-Mar-04 17:33N 18°26' W 064°46'0 0.0
2016-Mar-04 16:33N 18°26' W 064°46'0 0.1
2016-Mar-04 15:18N 18°26' W 064°46'3 3.7
2016-Mar-04 14:33N 18°25' W 064°44'2 1.9
2016-Mar-04 13:33N 18°23' W 064°43'0 0.0
2016-Mar-04 12:33N 18°23' W 064°43'0 0.0
2016-Mar-04 11:33N 18°23' W 064°42'0 0.0
2016-Mar-04 10:27N 18°23' W 064°42'0 0.0
2016-Mar-04 09:27N 18°23' W 064°42'0 0.0
2016-Mar-04 08:33N 18°23' W 064°43'0 0.0
2016-Mar-04 07:27N 18°23' W 064°43'0 0.0
2016-Mar-04 06:33N 18°23' W 064°43'0 0.0
2016-Mar-04 04:33N 18°23' W 064°43'0 0.0
2016-Mar-04 03:33N 18°23' W 064°43'0 0.0
2016-Mar-04 02:33N 18°23' W 064°43'0 0.0
2016-Mar-04 01:33N 18°23' W 064°43'0 0.0
2016-Mar-04 00:33N 18°23' W 064°43'0 0.0
2016-Mar-03 23:33N 18°23' W 064°43'0 0.0
2016-Mar-03 22:33N 18°23' W 064°43'0 0.0
2016-Mar-03 21:34N 18°23' W 064°43'0 0.0
2016-Mar-03 20:34N 18°23' W 064°43'0 0.0
2016-Mar-03 19:34N 18°23' W 064°43'0 0.0
2016-Mar-03 18:34N 18°23' W 064°43'0 0.0
2016-Mar-03 17:34N 18°23' W 064°43'4 4.2
2016-Mar-03 16:33N 18°24' W 064°38'  
Track history (hours):
 
Tides and Currents Weather Stations Pressure Air Temp Water Temp Dewpoint Dewpoint Depression Visibility Wind Speed Wind Dir Waves Ship Positions

Suakin

Last reported at 2016-Mar-05 08:18 UTC. Time now 2016-May-04 07:55 UTC.
Position N 18°31' W 064°56'.
Warning: this ship's position is 59 days out of date.

Length 37 m; draft 2.4 m.

Type: Pleasure craft. MMSI: 319897000.

Date/timePositionNaut miles runAvg speedWind from/ knotsBaromVisibWave heightAir tempDewpointWater temp
2016-Mar-05 08:18N 18°31' W 064°56'811.0
2016-Mar-05 07:33N 18°27' W 064°49'3 2.7
2016-Mar-05 06:27N 18°26' W 064°46'0 0.0
2016-Mar-05 05:12N 18°26' W 064°46'0 0.0
2016-Mar-05 04:27N 18°26' W 064°46'0 0.0
2016-Mar-05 03:33N 18°26' W 064°46'0 0.0
2016-Mar-05 02:33N 18°26' W 064°46'0 0.0
2016-Mar-05 01:33N 18°26' W 064°46'0 0.0
2016-Mar-05 00:33N 18°26' W 064°46'0 0.0
2016-Mar-04 23:33N 18°26' W 064°46'0 0.0
2016-Mar-04 22:33N 18°26' W 064°46'0 0.0
2016-Mar-04 21:33N 18°26' W 064°46'0 0.0
2016-Mar-04 20:33N 18°26' W 064°46'0 0.0
2016-Mar-04 19:33N 18°26' W 064°46'0 0.0
2016-Mar-04 18:33N 18°26' W 064°46'0 0.0
2016-Mar-04 17:33N 18°26' W 064°46'0 0.0
2016-Mar-04 16:33N 18°26' W 064°46'0 0.1
2016-Mar-04 15:18N 18°26' W 064°46'3 3.7
2016-Mar-04 14:33N 18°25' W 064°44'2 1.9
2016-Mar-04 13:33N 18°23' W 064°43'0 0.0
2016-Mar-04 12:33N 18°23' W 064°43'0 0.0
2016-Mar-04 11:33N 18°23' W 064°42'0 0.0
2016-Mar-04 10:27N 18°23' W 064°42'0 0.0
2016-Mar-04 09:27N 18°23' W 064°42'0 0.0
2016-Mar-04 08:33N 18°23' W 064°43'0 0.0
2016-Mar-04 07:27N 18°23' W 064°43'0 0.0
2016-Mar-04 06:33N 18°23' W 064°43'0 0.0
2016-Mar-04 04:33N 18°23' W 064°43'0 0.0
2016-Mar-04 03:33N 18°23' W 064°43'0 0.0
2016-Mar-04 02:33N 18°23' W 064°43'0 0.0
2016-Mar-04 01:33N 18°23' W 064°43'0 0.0
2016-Mar-04 00:33N 18°23' W 064°43'0 0.0
2016-Mar-03 23:33N 18°23' W 064°43'0 0.0
2016-Mar-03 22:33N 18°23' W 064°43'0 0.0
2016-Mar-03 21:34N 18°23' W 064°43'0 0.0
2016-Mar-03 20:34N 18°23' W 064°43'0 0.0
2016-Mar-03 19:34N 18°23' W 064°43'0 0.0
2016-Mar-03 18:34N 18°23' W 064°43'0 0.0
2016-Mar-03 17:34N 18°23' W 064°43'4 4.2
2016-Mar-03 16:33N 18°24' W 064°38'  

Dump ship's entire track history